Time;durP1;ratioP1;P1;durP2;ratioP2;P2;SDS_P1;SDS_P2;PMS_P1;PMS_P2;Temp;Humidity;BMP_temperature;BMP_pressure;BME280_temperature;BME280_humidity;BME280_pressure;Samples;Min_cycle;Max_cycle;Signal;HPM_P1;HPM_P2
2022/02/05 00:01:09;;;;;;;1.37;0.90;;;;;;;;;;5069229;28;20452;-70
2022/02/05 00:03:41;;;;;;;0.97;0.80;;;;;;;;;;5073090;28;20450;-70
2022/02/05 00:06:12;;;;;;;1.13;0.97;;;;;;;;;;5073747;28;20460;-70
2022/02/05 00:08:51;;;;;;;1.50;1.00;;;;;;;;;;5074213;28;20450;-70
2022/02/05 00:11:54;;;;;;;2.53;1.00;;;;;;;;;;5072496;28;20449;-69
2022/02/05 00:39:52;;;;;;;1.37;1.17;;;;;;;;;;5072937;28;20475;-70
2022/02/05 00:42:30;;;;;;;2.20;1.10;;;;;;;;;;5080140;28;20480;-69
2022/02/05 00:44:57;;;;;;;2.10;1.30;;;;;;;;;;5080692;28;20456;-69
2022/02/05 00:47:25;;;;;;;1.30;1.20;;;;;;;;;;5073425;28;20522;-69
2022/02/05 00:49:58;;;;;;;1.47;1.00;;;;;;;;;;5072640;28;20488;-69
2022/02/05 00:52:26;;;;;;;2.23;1.30;;;;;;;;;;5065645;28;20855;-69
2022/02/05 00:55:03;;;;;;;4.03;1.20;;;;;;;;;;5070944;28;20538;-69
2022/02/05 00:57:45;;;;;;;3.10;1.40;;;;;;;;;;5073006;28;20873;-69
2022/02/05 01:00:13;;;;;;;1.47;1.10;;;;;;;;;;5069272;28;20929;-68
2022/02/05 01:02:40;;;;;;;1.40;1.20;;;;;;;;;;5071848;28;20856;-69
2022/02/05 01:05:07;;;;;;;3.37;1.17;;;;;;;;;;5071903;28;20449;-69
2022/02/05 01:07:35;;;;;;;1.33;1.23;;;;;;;;;;5072160;28;20882;-69
2022/02/05 01:10:04;;;;;;;1.10;0.90;;;;;;;;;;5071829;28;20457;-69
2022/02/05 01:12:33;;;;;;;2.20;1.00;;;;;;;;;;5071455;28;21331;-70
2022/02/05 01:15:02;;;;;;;2.77;1.20;;;;;;;;;;5071055;28;20442;-69
2022/02/05 01:17:34;;;;;;;2.40;1.23;;;;;;;;;;5071946;28;20953;-69
2022/02/05 01:20:39;;;;;;;3.50;2.80;;;;;;;;;;5068068;28;20465;-69
2022/02/05 01:23:10;;;;;;;2.80;1.23;;;;;;;;;;5068050;28;20494;-69
2022/02/05 01:25:44;;;;;;;2.20;1.10;;;;;;;;;;5072581;28;20457;-69
2022/02/05 01:28:15;;;;;;;3.00;0.97;;;;;;;;;;5072414;28;20477;-69
2022/02/05 01:30:46;;;;;;;1.23;1.13;;;;;;;;;;5071368;28;20452;-69
2022/02/05 01:33:33;;;;;;;3.47;1.10;;;;;;;;;;5071812;28;20516;-69
2022/02/05 01:36:18;;;;;;;3.30;1.40;;;;;;;;;;5071241;28;20945;-69
2022/02/05 01:52:53;;;;;;;2.67;1.47;;;;;;;;;;5049226;28;20522;-71
2022/02/05 01:55:34;;;;;;;3.97;1.03;;;;;;;;;;5071351;28;20496;-70
2022/02/05 01:58:15;;;;;;;3.10;1.70;;;;;;;;;;5070856;28;20790;-70
2022/02/05 02:06:17;;;;;;;3.20;1.40;;;;;;;;;;5071342;28;20482;-68
2022/02/05 02:11:39;;;;;;;2.03;1.00;;;;;;;;;;5061907;28;20475;-68
2022/02/05 02:19:37;;;;;;;1.30;0.90;;;;;;;;;;5070905;28;20969;-68
2022/02/05 02:22:12;;;;;;;2.33;1.57;;;;;;;;;;5067991;28;21125;-70
2022/02/05 02:24:53;;;;;;;1.80;0.97;;;;;;;;;;5082036;28;20517;-68
2022/02/05 02:27:29;;;;;;;3.30;1.47;;;;;;;;;;5066737;28;20458;-68
2022/02/05 02:30:03;;;;;;;6.43;1.23;;;;;;;;;;5070144;28;20476;-68
2022/02/05 02:32:32;;;;;;;4.77;1.83;;;;;;;;;;5070734;28;20440;-70
2022/02/05 02:35:04;;;;;;;2.30;1.30;;;;;;;;;;5069829;28;20457;-68
2022/02/05 02:37:38;;;;;;;2.50;1.13;;;;;;;;;;5071719;28;20445;-69
2022/02/05 02:40:11;;;;;;;3.47;2.00;;;;;;;;;;5069651;28;20468;-69
2022/02/05 02:42:43;;;;;;;3.87;1.30;;;;;;;;;;5070639;28;20442;-69
2022/02/05 02:45:11;;;;;;;1.93;1.27;;;;;;;;;;5070155;28;21010;-68
2022/02/05 02:47:41;;;;;;;1.90;1.17;;;;;;;;;;5070754;28;20496;-68
2022/02/05 02:50:13;;;;;;;4.10;1.73;;;;;;;;;;5067356;28;20445;-69
2022/02/05 02:58:21;;;;;;;3.30;1.63;;;;;;;;;;5070209;28;21146;-70
2022/02/05 03:00:54;;;;;;;2.43;1.50;;;;;;;;;;5069835;28;20527;-68
2022/02/05 03:03:21;;;;;;;5.13;1.60;;;;;;;;;;5070584;28;20804;-68
2022/02/05 03:05:48;;;;;;;3.43;1.87;;;;;;;;;;5069251;28;20465;-70
2022/02/05 03:08:17;;;;;;;2.90;1.80;;;;;;;;;;5070251;28;21037;-68
2022/02/05 03:10:44;;;;;;;3.47;1.60;;;;;;;;;;5068581;28;20441;-70
2022/02/05 03:13:11;;;;;;;2.30;1.50;;;;;;;;;;5070888;28;20452;-70
2022/02/05 03:15:40;;;;;;;3.67;1.60;;;;;;;;;;5069902;28;20457;-68
2022/02/05 03:18:11;;;;;;;2.10;1.27;;;;;;;;;;5069832;28;20550;-68
2022/02/05 03:20:38;;;;;;;5.70;1.90;;;;;;;;;;5069256;28;20442;-69
2022/02/05 03:23:06;;;;;;;3.03;1.67;;;;;;;;;;5070114;28;20983;-70
2022/02/05 03:25:35;;;;;;;1.37;1.20;;;;;;;;;;5071801;28;20551;-70
2022/02/05 03:28:02;;;;;;;2.20;1.40;;;;;;;;;;5076038;28;20457;-67
2022/02/05 03:30:29;;;;;;;2.67;1.50;;;;;;;;;;5076180;28;20477;-68
2022/02/05 03:32:58;;;;;;;13.70;2.40;;;;;;;;;;5070292;28;20455;-70
2022/02/05 03:35:26;;;;;;;2.87;1.40;;;;;;;;;;5069770;28;20445;-69
2022/02/05 03:37:53;;;;;;;1.00;0.90;;;;;;;;;;5071498;28;20450;-68
2022/02/05 03:40:20;;;;;;;2.60;1.43;;;;;;;;;;5073160;28;20530;-68
2022/02/05 03:42:49;;;;;;;1.90;1.73;;;;;;;;;;5072876;28;20449;-70
2022/02/05 03:45:16;;;;;;;2.60;1.60;;;;;;;;;;5074085;28;20454;-68
2022/02/05 03:47:43;;;;;;;3.67;1.90;;;;;;;;;;5073886;28;20445;-68
2022/02/05 03:50:11;;;;;;;3.00;1.60;;;;;;;;;;5073643;28;20456;-68
2022/02/05 03:52:39;;;;;;;2.90;1.47;;;;;;;;;;5073856;28;20473;-68
2022/02/05 03:55:08;;;;;;;2.90;1.63;;;;;;;;;;5068804;28;20997;-70
2022/02/05 03:57:35;;;;;;;1.63;1.53;;;;;;;;;;5073650;28;20952;-68
2022/02/05 04:00:07;;;;;;;2.40;1.37;;;;;;;;;;5073170;28;20712;-70
2022/02/05 04:02:34;;;;;;;2.80;2.20;;;;;;;;;;5073477;28;20930;-69
2022/02/05 04:05:01;;;;;;;4.43;2.10;;;;;;;;;;5072537;28;20533;-69
2022/02/05 04:07:31;;;;;;;5.50;2.53;;;;;;;;;;5073848;28;20445;-68
2022/02/05 04:10:02;;;;;;;2.93;1.57;;;;;;;;;;5072351;28;20547;-69
2022/02/05 04:18:00;;;;;;;4.20;1.83;;;;;;;;;;5072840;28;20523;-68
2022/02/05 04:20:27;;;;;;;2.80;1.83;;;;;;;;;;5073285;28;20540;-68
2022/02/05 04:22:55;;;;;;;4.30;1.83;;;;;;;;;;5072778;28;20450;-68
2022/02/05 04:25:22;;;;;;;1.70;1.53;;;;;;;;;;5073150;28;20457;-68
2022/02/05 04:27:49;;;;;;;3.20;1.47;;;;;;;;;;5072779;28;20679;-68
2022/02/05 04:30:18;;;;;;;2.90;1.60;;;;;;;;;;5072681;28;20446;-69
2022/02/05 04:32:45;;;;;;;4.30;1.53;;;;;;;;;;5072218;28;20449;-68
2022/02/05 04:35:12;;;;;;;2.20;2.00;;;;;;;;;;5072549;28;21028;-70
2022/02/05 04:37:41;;;;;;;3.10;1.80;;;;;;;;;;5073477;28;20452;-68
2022/02/05 04:40:21;;;;;;;3.33;1.73;;;;;;;;;;5072121;28;20534;-68
2022/02/05 04:42:57;;;;;;;3.70;1.60;;;;;;;;;;5071613;28;20445;-68
2022/02/05 04:45:59;;;;;;;3.23;1.90;;;;;;;;;;5072935;28;20809;-68
2022/02/05 04:54:09;;;;;;;3.13;1.70;;;;;;;;;;5070759;28;20901;-68
2022/02/05 04:56:47;;;;;;;2.60;1.37;;;;;;;;;;5060929;28;20452;-68
2022/02/05 05:02:22;;;;;;;3.40;1.80;;;;;;;;;;5071759;28;20454;-69
2022/02/05 05:04:54;;;;;;;5.57;2.10;;;;;;;;;;5071738;28;20537;-68
2022/02/05 05:10:20;;;;;;;3.03;1.63;;;;;;;;;;5071124;28;20442;-68
2022/02/05 05:12:55;;;;;;;4.63;1.70;;;;;;;;;;5068323;28;20445;-68
2022/02/05 05:15:33;;;;;;;5.50;2.07;;;;;;;;;;5067537;28;20477;-69
2022/02/05 05:20:53;;;;;;;4.77;2.40;;;;;;;;;;5067746;28;20834;-70
2022/02/05 05:23:20;;;;;;;2.67;1.77;;;;;;;;;;5075072;28;20460;-69
2022/02/05 05:25:47;;;;;;;2.17;1.97;;;;;;;;;;5080545;28;20460;-68
2022/02/05 05:28:15;;;;;;;5.27;1.80;;;;;;;;;;5071890;28;20445;-69
2022/02/05 05:30:42;;;;;;;4.40;2.00;;;;;;;;;;5071474;28;20795;-69
2022/02/05 05:33:10;;;;;;;1.80;1.40;;;;;;;;;;5071685;28;20495;-69
2022/02/05 05:35:38;;;;;;;3.57;1.87;;;;;;;;;;5072196;28;20444;-69
2022/02/05 05:38:05;;;;;;;2.67;1.97;;;;;;;;;;5071506;28;20477;-69
2022/02/05 05:40:32;;;;;;;3.30;2.33;;;;;;;;;;5071661;28;20607;-69
2022/02/05 05:43:03;;;;;;;6.23;2.27;;;;;;;;;;5071617;28;20451;-69
2022/02/05 05:45:49;;;;;;;4.37;1.90;;;;;;;;;;5072243;28;20846;-69
2022/02/05 05:48:27;;;;;;;2.80;2.30;;;;;;;;;;5072268;28;20443;-69
2022/02/05 05:51:00;;;;;;;6.73;2.00;;;;;;;;;;5070499;28;20449;-69
2022/02/05 05:53:28;;;;;;;3.07;1.83;;;;;;;;;;5071605;28;20538;-69
2022/02/05 05:55:55;;;;;;;3.40;1.97;;;;;;;;;;5068960;28;20562;-69
2022/02/05 05:58:23;;;;;;;4.70;2.30;;;;;;;;;;5069408;28;20532;-69
2022/02/05 06:00:50;;;;;;;3.83;2.00;;;;;;;;;;5069206;28;21038;-68
2022/02/05 06:03:19;;;;;;;3.23;1.87;;;;;;;;;;5070919;28;20453;-69
2022/02/05 06:05:46;;;;;;;2.27;1.40;;;;;;;;;;5069433;28;20813;-68
2022/02/05 06:08:15;;;;;;;3.73;1.97;;;;;;;;;;5066461;28;20917;-68
2022/02/05 06:10:43;;;;;;;5.13;2.97;;;;;;;;;;5074365;28;20452;-69
2022/02/05 06:13:10;;;;;;;2.73;1.90;;;;;;;;;;5078231;28;20461;-69
2022/02/05 06:15:38;;;;;;;2.40;1.83;;;;;;;;;;5075304;28;20453;-69
2022/02/05 06:18:06;;;;;;;4.47;1.90;;;;;;;;;;5066957;28;20507;-69
2022/02/05 06:20:35;;;;;;;3.40;2.03;;;;;;;;;;5067098;28;21001;-69
2022/02/05 06:23:02;;;;;;;4.93;1.90;;;;;;;;;;5066544;28;21321;-68
2022/02/05 06:25:31;;;;;;;4.23;1.97;;;;;;;;;;5067199;28;20453;-69
2022/02/05 06:27:58;;;;;;;3.73;2.20;;;;;;;;;;5068187;28;20809;-68
2022/02/05 06:30:26;;;;;;;3.90;3.30;;;;;;;;;;5068794;28;20450;-69
2022/02/05 06:32:53;;;;;;;3.07;1.77;;;;;;;;;;5068264;28;20441;-69
2022/02/05 06:35:21;;;;;;;6.27;2.63;;;;;;;;;;5067707;28;20465;-69
2022/02/05 06:37:50;;;;;;;2.33;1.93;;;;;;;;;;5067466;28;20446;-69
2022/02/05 06:40:17;;;;;;;5.70;2.37;;;;;;;;;;5067860;28;20483;-69
2022/02/05 06:42:45;;;;;;;6.17;2.33;;;;;;;;;;5068483;28;20452;-69
2022/02/05 06:45:13;;;;;;;3.00;2.23;;;;;;;;;;5065786;28;20445;-69
2022/02/05 06:47:40;;;;;;;4.13;2.40;;;;;;;;;;5067944;28;20974;-69
2022/02/05 06:50:07;;;;;;;3.70;1.80;;;;;;;;;;5067819;28;20463;-69
2022/02/05 06:52:34;;;;;;;3.87;2.30;;;;;;;;;;5067479;28;20548;-69
2022/02/05 06:55:03;;;;;;;4.00;1.53;;;;;;;;;;5066442;28;20477;-69
2022/02/05 06:57:31;;;;;;;2.83;1.80;;;;;;;;;;5067571;28;20528;-70
2022/02/05 06:59:58;;;;;;;3.13;1.87;;;;;;;;;;5066474;28;20502;-69
2022/02/05 07:02:25;;;;;;;4.30;1.97;;;;;;;;;;5069227;28;20460;-69
2022/02/05 07:04:52;;;;;;;4.00;2.27;;;;;;;;;;5068318;28;20541;-69
2022/02/05 07:07:19;;;;;;;2.60;1.60;;;;;;;;;;5068455;28;20461;-69
2022/02/05 07:09:46;;;;;;;3.00;1.90;;;;;;;;;;5067799;28;20456;-69
2022/02/05 07:12:15;;;;;;;2.00;1.43;;;;;;;;;;5067632;28;20450;-70
2022/02/05 07:14:55;;;;;;;4.00;1.50;;;;;;;;;;5072568;28;20441;-69
2022/02/05 07:17:30;;;;;;;2.70;1.80;;;;;;;;;;5071939;28;20445;-70
2022/02/05 07:20:04;;;;;;;7.53;4.30;;;;;;;;;;5072083;28;20527;-71
2022/02/05 07:22:42;;;;;;;3.37;1.80;;;;;;;;;;5071892;28;20437;-71
2022/02/05 07:30:41;;;;;;;3.10;2.00;;;;;;;;;;5073784;28;20514;-71
2022/02/05 07:33:08;;;;;;;3.20;1.90;;;;;;;;;;5073359;28;20484;-71
2022/02/05 07:35:35;;;;;;;3.70;2.00;;;;;;;;;;5066116;28;20446;-71
2022/02/05 07:38:02;;;;;;;4.60;1.90;;;;;;;;;;5069119;28;20460;-71
2022/02/05 07:40:29;;;;;;;3.80;1.70;;;;;;;;;;5073412;28;20479;-71
2022/02/05 07:42:58;;;;;;;4.67;2.40;;;;;;;;;;5073366;28;20512;-69
2022/02/05 07:45:25;;;;;;;4.10;2.23;;;;;;;;;;5070639;28;20453;-69
2022/02/05 07:47:53;;;;;;;5.10;2.33;;;;;;;;;;5073750;28;20453;-69
2022/02/05 07:50:20;;;;;;;3.07;1.77;;;;;;;;;;5074139;28;20445;-71
2022/02/05 07:52:47;;;;;;;3.73;1.97;;;;;;;;;;5072916;28;20449;-69
2022/02/05 07:55:14;;;;;;;4.10;1.77;;;;;;;;;;5073688;28;20832;-69
2022/02/05 07:57:41;;;;;;;2.80;1.97;;;;;;;;;;5074274;28;20441;-70
2022/02/05 08:00:11;;;;;;;5.30;2.13;;;;;;;;;;5073659;28;20797;-70
2022/02/05 08:02:38;;;;;;;2.67;1.93;;;;;;;;;;5073798;28;20539;-69
2022/02/05 08:05:05;;;;;;;2.20;2.00;;;;;;;;;;5072873;28;20922;-69
2022/02/05 08:07:32;;;;;;;7.00;2.67;;;;;;;;;;5073717;28;20449;-70
2022/02/05 08:10:02;;;;;;;5.80;1.90;;;;;;;;;;5072720;28;20922;-69
2022/02/05 08:12:32;;;;;;;8.57;2.80;;;;;;;;;;5072055;28;21022;-68
2022/02/05 08:15:00;;;;;;;2.40;1.73;;;;;;;;;;5072775;28;20449;-68
2022/02/05 08:17:32;;;;;;;2.33;1.90;;;;;;;;;;5073416;28;20449;-69
2022/02/05 08:19:59;;;;;;;5.20;2.00;;;;;;;;;;5073067;28;20515;-69
2022/02/05 08:22:26;;;;;;;1.63;1.53;;;;;;;;;;5072930;28;20448;-68
2022/02/05 08:24:53;;;;;;;2.43;1.70;;;;;;;;;;5072113;28;20453;-68
2022/02/05 08:27:21;;;;;;;6.67;1.70;;;;;;;;;;5073516;28;20453;-68
2022/02/05 08:29:54;;;;;;;3.17;1.53;;;;;;;;;;5073360;28;20445;-68
2022/02/05 08:32:23;;;;;;;3.53;1.60;;;;;;;;;;5060476;28;20476;-68
2022/02/05 08:34:51;;;;;;;5.47;1.90;;;;;;;;;;5073031;28;20481;-68
2022/02/05 08:37:18;;;;;;;2.80;1.90;;;;;;;;;;5073278;28;20477;-68
2022/02/05 08:39:46;;;;;;;2.53;1.47;;;;;;;;;;5072456;28;20532;-68
2022/02/05 08:42:13;;;;;;;5.20;2.40;;;;;;;;;;5072447;28;20549;-68
2022/02/05 08:44:40;;;;;;;3.37;1.93;;;;;;;;;;5073466;28;20536;-68
2022/02/05 08:47:07;;;;;;;4.03;1.50;;;;;;;;;;5073036;28;20537;-68
2022/02/05 08:49:34;;;;;;;2.70;1.80;;;;;;;;;;5073124;28;20469;-69
2022/02/05 08:52:06;;;;;;;3.50;1.67;;;;;;;;;;5072274;28;20456;-68
2022/02/05 08:54:33;;;;;;;3.30;1.47;;;;;;;;;;5072671;28;20961;-68
2022/02/05 08:57:01;;;;;;;3.40;1.60;;;;;;;;;;5071614;28;20515;-67
2022/02/05 08:59:33;;;;;;;2.60;1.70;;;;;;;;;;5072664;28;20524;-68
2022/02/05 09:02:07;;;;;;;6.13;1.23;;;;;;;;;;5072090;28;20473;-70
2022/02/05 09:04:46;;;;;;;2.70;1.67;;;;;;;;;;5073123;28;20528;-68
2022/02/05 09:07:14;;;;;;;4.30;1.80;;;;;;;;;;5073090;28;20485;-67
2022/02/05 09:09:53;;;;;;;1.57;1.17;;;;;;;;;;5073224;28;20888;-68
2022/02/05 09:12:33;;;;;;;2.03;1.40;;;;;;;;;;5072439;28;20449;-68
2022/02/05 09:15:00;;;;;;;1.70;1.60;;;;;;;;;;5072258;28;20451;-68
2022/02/05 09:17:28;;;;;;;5.30;2.07;;;;;;;;;;5072429;28;20926;-68
2022/02/05 09:19:55;;;;;;;3.10;1.70;;;;;;;;;;5071778;28;20448;-68
2022/02/05 09:22:24;;;;;;;5.00;1.90;;;;;;;;;;5071784;28;21004;-68
2022/02/05 09:24:51;;;;;;;2.43;1.40;;;;;;;;;;5071738;28;20449;-68
2022/02/05 09:27:19;;;;;;;3.13;1.50;;;;;;;;;;5071879;28;20540;-68
2022/02/05 09:29:59;;;;;;;5.13;1.93;;;;;;;;;;5071901;28;20530;-69
2022/02/05 09:32:26;;;;;;;2.30;1.30;;;;;;;;;;5059940;28;20457;-68
2022/02/05 09:34:53;;;;;;;2.70;1.50;;;;;;;;;;5070294;28;20450;-68
2022/02/05 09:37:21;;;;;;;6.27;1.20;;;;;;;;;;5072366;28;20445;-68
2022/02/05 09:39:49;;;;;;;5.50;1.60;;;;;;;;;;5071108;28;20445;-68
2022/02/05 09:42:17;;;;;;;2.70;1.30;;;;;;;;;;5071262;28;20564;-68
2022/02/05 09:44:44;;;;;;;2.37;1.33;;;;;;;;;;5071693;28;20446;-69
2022/02/05 09:47:11;;;;;;;4.80;1.50;;;;;;;;;;5072508;28;20962;-68
2022/02/05 09:49:39;;;;;;;3.53;1.20;;;;;;;;;;5072317;28;20454;-68
2022/02/05 09:52:10;;;;;;;4.77;1.17;;;;;;;;;;5071222;28;20548;-69
2022/02/05 09:54:38;;;;;;;3.47;1.10;;;;;;;;;;5071763;28;20905;-68
2022/02/05 09:57:07;;;;;;;2.70;1.17;;;;;;;;;;5070987;28;20445;-68
2022/02/05 09:59:39;;;;;;;3.40;1.20;;;;;;;;;;5071473;28;20536;-68
2022/02/05 10:02:19;;;;;;;5.63;1.00;;;;;;;;;;5070853;28;20470;-68
2022/02/05 10:04:53;;;;;;;3.60;1.10;;;;;;;;;;5071110;28;20538;-67
2022/02/05 10:07:20;;;;;;;1.87;1.00;;;;;;;;;;5071604;28;20861;-68
2022/02/05 10:09:54;;;;;;;2.40;1.10;;;;;;;;;;5071137;28;20525;-69
2022/02/05 10:12:23;;;;;;;2.10;1.27;;;;;;;;;;5071136;28;20445;-68
2022/02/05 10:14:52;;;;;;;2.70;1.20;;;;;;;;;;5070916;28;20552;-68
2022/02/05 10:17:19;;;;;;;2.40;0.93;;;;;;;;;;5071430;28;20437;-68
2022/02/05 10:19:48;;;;;;;2.67;1.40;;;;;;;;;;5070473;28;20457;-66
2022/02/05 10:22:15;;;;;;;2.43;1.37;;;;;;;;;;5070311;28;20571;-68
2022/02/05 10:24:49;;;;;;;4.67;1.30;;;;;;;;;;5070684;28;20811;-67
2022/02/05 10:27:28;;;;;;;5.80;1.60;;;;;;;;;;5071474;28;20515;-68
2022/02/05 10:30:05;;;;;;;3.00;1.40;;;;;;;;;;5071050;28;20437;-68
2022/02/05 10:32:32;;;;;;;1.77;1.00;;;;;;;;;;5071214;28;20505;-68
2022/02/05 10:35:04;;;;;;;5.47;1.70;;;;;;;;;;5070633;28;20441;-70
2022/02/05 10:37:35;;;;;;;1.63;1.00;;;;;;;;;;5071047;28;20442;-68
2022/02/05 10:40:08;;;;;;;5.27;1.40;;;;;;;;;;5070611;28;20448;-68
2022/02/05 10:43:02;;;;;;;1.73;1.07;;;;;;;;;;5070692;28;20526;-68
2022/02/05 10:45:32;;;;;;;5.33;1.80;;;;;;;;;;5071267;28;20491;-68
2022/02/05 10:47:59;;;;;;;3.57;1.23;;;;;;;;;;5070327;28;20450;-68
2022/02/05 10:50:28;;;;;;;4.47;1.13;;;;;;;;;;5070849;28;20441;-68
2022/02/05 10:52:59;;;;;;;6.50;1.43;;;;;;;;;;5070035;28;20536;-68
2022/02/05 10:55:50;;;;;;;1.47;1.03;;;;;;;;;;5070998;28;20554;-68
2022/02/05 10:58:31;;;;;;;2.63;1.20;;;;;;;;;;5071195;28;20786;-70
2022/02/05 11:06:43;;;;;;;4.10;1.10;;;;;;;;;;5070084;28;20441;-67
2022/02/05 11:09:10;;;;;;;2.80;1.43;;;;;;;;;;5070918;28;21003;-70
2022/02/05 11:12:20;;;;;;;4.47;1.43;;;;;;;;;;5070621;28;20449;-68
2022/02/05 11:20:11;;;;;;;7.77;1.33;;;;;;;;;;5071114;28;20460;-66
2022/02/05 11:22:40;;;;;;;2.23;1.27;;;;;;;;;;5070622;28;20485;-68
2022/02/05 11:25:09;;;;;;;2.07;1.20;;;;;;;;;;5070459;28;20802;-67
2022/02/05 11:27:36;;;;;;;1.50;1.10;;;;;;;;;;5070604;28;20547;-67
2022/02/05 11:30:18;;;;;;;3.70;1.00;;;;;;;;;;5069914;28;20686;-67
2022/02/05 11:32:50;;;;;;;5.27;1.57;;;;;;;;;;5069343;28;20503;-67
2022/02/05 11:35:29;;;;;;;1.80;0.63;;;;;;;;;;5070574;28;20512;-68
2022/02/05 11:37:57;;;;;;;4.00;1.10;;;;;;;;;;5069673;28;20941;-67
2022/02/05 11:40:43;;;;;;;4.93;0.90;;;;;;;;;;5070322;28;20536;-69
2022/02/05 11:43:16;;;;;;;4.13;0.90;;;;;;;;;;5070268;28;20453;-68
2022/02/05 11:45:44;;;;;;;1.87;1.00;;;;;;;;;;5069970;28;20484;-66
2022/02/05 11:48:26;;;;;;;1.80;1.07;;;;;;;;;;5070289;28;20456;-67
2022/02/05 11:54:14;;;;;;;1.13;0.90;;;;;;;;;;5149458;27;20552;-67
2022/02/05 11:56:51;;;;;;;1.53;1.07;;;;;;;;;;5138109;27;20441;-68
2022/02/05 11:59:20;;;;;;;3.20;0.73;;;;;;;;;;5150101;27;20488;-67
2022/02/05 12:01:47;;;;;;;1.90;0.60;;;;;;;;;;5148898;27;20930;-70
2022/02/05 12:04:16;;;;;;;1.20;0.90;;;;;;;;;;5149979;27;20464;-69
2022/02/05 12:06:47;;;;;;;1.63;0.67;;;;;;;;;;5149431;27;20437;-66
2022/02/05 12:09:33;;;;;;;3.33;1.20;;;;;;;;;;5149602;27;20446;-67
2022/02/05 12:12:35;;;;;;;4.23;0.90;;;;;;;;;;5148450;27;20597;-67
2022/02/05 12:15:22;;;;;;;1.23;0.87;;;;;;;;;;5149308;27;21013;-67
2022/02/05 12:18:08;;;;;;;4.63;1.23;;;;;;;;;;5136583;27;20442;-67
2022/02/05 12:20:57;;;;;;;3.10;1.00;;;;;;;;;;5149575;27;20509;-67
2022/02/05 12:23:30;;;;;;;1.27;0.77;;;;;;;;;;5149032;27;20458;-67
2022/02/05 12:26:15;;;;;;;2.57;0.90;;;;;;;;;;5148774;27;20453;-68
2022/02/05 12:28:44;;;;;;;1.77;0.80;;;;;;;;;;5149244;27;20441;-69
2022/02/05 12:31:28;;;;;;;1.60;0.90;;;;;;;;;;5148448;27;20952;-70
2022/02/05 12:33:58;;;;;;;2.37;0.83;;;;;;;;;;5148198;27;20528;-68
2022/02/05 12:36:27;;;;;;;1.93;0.83;;;;;;;;;;5149216;27;20442;-67
2022/02/05 12:38:55;;;;;;;4.80;0.80;;;;;;;;;;5148717;27;20945;-67
2022/02/05 12:41:24;;;;;;;4.77;0.97;;;;;;;;;;5148695;27;20448;-67
2022/02/05 12:43:54;;;;;;;1.17;0.77;;;;;;;;;;5148705;27;20507;-67
2022/02/05 12:46:22;;;;;;;3.47;1.00;;;;;;;;;;5149162;27;20450;-67
2022/02/05 12:48:54;;;;;;;1.97;0.60;;;;;;;;;;5148244;27;20449;-68
2022/02/05 12:51:21;;;;;;;1.90;0.67;;;;;;;;;;5148651;27;20441;-68
2022/02/05 12:53:48;;;;;;;2.60;0.80;;;;;;;;;;5148320;27;20528;-67
2022/02/05 12:56:17;;;;;;;2.50;0.90;;;;;;;;;;5148424;27;20897;-68
2022/02/05 12:59:00;;;;;;;3.27;0.90;;;;;;;;;;5148045;27;20852;-66
2022/02/05 13:01:27;;;;;;;2.43;0.80;;;;;;;;;;5135250;27;20430;-68
2022/02/05 13:04:09;;;;;;;2.70;0.87;;;;;;;;;;5141217;27;20453;-67
2022/02/05 13:06:36;;;;;;;1.67;0.70;;;;;;;;;;5134847;27;20469;-68
2022/02/05 13:09:03;;;;;;;2.43;0.83;;;;;;;;;;5134106;27;20449;-67
2022/02/05 13:11:31;;;;;;;3.00;0.87;;;;;;;;;;5134087;27;20550;-67
2022/02/05 13:14:00;;;;;;;2.70;0.97;;;;;;;;;;5133277;27;20514;-68
2022/02/05 13:16:37;;;;;;;2.83;1.07;;;;;;;;;;5134902;27;20450;-67
2022/02/05 13:19:19;;;;;;;2.17;0.73;;;;;;;;;;5133965;27;20547;-67
2022/02/05 13:25:01;;;;;;;7.10;0.97;;;;;;;;;;5133943;27;20418;-67
2022/02/05 13:27:44;;;;;;;4.73;1.00;;;;;;;;;;5121765;27;20457;-67
2022/02/05 13:36:01;;;;;;;3.20;1.10;;;;;;;;;;5133817;27;20440;-67
2022/02/05 13:38:34;;;;;;;1.87;0.67;;;;;;;;;;5134353;27;20449;-70
2022/02/05 13:41:02;;;;;;;4.20;0.80;;;;;;;;;;5132517;27;20934;-67
2022/02/05 13:43:40;;;;;;;1.60;0.80;;;;;;;;;;5132833;27;22200;-68
2022/02/05 13:46:11;;;;;;;2.70;1.20;;;;;;;;;;5129373;27;20466;-67
2022/02/05 13:48:39;;;;;;;3.40;0.97;;;;;;;;;;5131414;27;20466;-68
2022/02/05 13:51:06;;;;;;;1.97;0.80;;;;;;;;;;5130023;27;20519;-70
2022/02/05 13:53:33;;;;;;;1.30;0.70;;;;;;;;;;5128723;27;20490;-69
2022/02/05 13:56:05;;;;;;;1.10;0.70;;;;;;;;;;5130186;27;20447;-72
2022/02/05 13:58:38;;;;;;;2.10;0.70;;;;;;;;;;5131605;27;20476;-69
2022/02/05 14:01:05;;;;;;;0.97;0.50;;;;;;;;;;5130702;27;20784;-67
2022/02/05 14:03:37;;;;;;;2.60;0.93;;;;;;;;;;5131111;27;20450;-67
2022/02/05 14:06:07;;;;;;;1.90;0.90;;;;;;;;;;5130774;27;20470;-67
2022/02/05 14:08:35;;;;;;;1.70;1.20;;;;;;;;;;5130447;27;20453;-66
2022/02/05 14:11:03;;;;;;;4.73;1.20;;;;;;;;;;5116272;27;20896;-67
2022/02/05 14:13:31;;;;;;;2.40;1.00;;;;;;;;;;5130161;27;21060;-66
2022/02/05 14:16:00;;;;;;;1.87;0.73;;;;;;;;;;5128614;27;21020;-67
2022/02/05 14:18:28;;;;;;;1.83;0.80;;;;;;;;;;5128549;27;20954;-68
2022/02/05 14:20:58;;;;;;;2.43;0.70;;;;;;;;;;5129582;27;20455;-68
2022/02/05 14:23:27;;;;;;;1.40;0.80;;;;;;;;;;5130200;27;20564;-67
2022/02/05 14:25:59;;;;;;;3.47;1.20;;;;;;;;;;5130165;27;21002;-68
2022/02/05 14:28:33;;;;;;;1.83;0.80;;;;;;;;;;5128183;27;20506;-67
2022/02/05 14:31:13;;;;;;;1.63;0.80;;;;;;;;;;5129241;27;20468;-68
2022/02/05 14:33:51;;;;;;;2.20;0.90;;;;;;;;;;5129925;27;20478;-67
2022/02/05 14:41:58;;;;;;;1.20;0.80;;;;;;;;;;5115791;27;20555;-68
2022/02/05 14:44:25;;;;;;;1.07;0.83;;;;;;;;;;5129692;27;20942;-69
2022/02/05 14:46:52;;;;;;;4.30;1.00;;;;;;;;;;5129039;27;20446;-68
2022/02/05 14:49:19;;;;;;;1.10;0.63;;;;;;;;;;5130126;27;20448;-68
2022/02/05 14:51:48;;;;;;;1.70;0.80;;;;;;;;;;5127211;27;20996;-68
2022/02/05 14:54:15;;;;;;;1.00;0.70;;;;;;;;;;5130417;27;20483;-68
2022/02/05 14:56:42;;;;;;;2.03;0.90;;;;;;;;;;5128433;27;20541;-66
2022/02/05 14:59:10;;;;;;;4.50;1.17;;;;;;;;;;5130263;27;20447;-68
2022/02/05 15:01:38;;;;;;;1.90;1.07;;;;;;;;;;5129280;27;21253;-68
2022/02/05 15:04:05;;;;;;;1.73;0.73;;;;;;;;;;5127434;27;20455;-68
2022/02/05 15:06:34;;;;;;;2.60;0.80;;;;;;;;;;5127866;27;20881;-70
2022/02/05 15:09:05;;;;;;;1.63;0.77;;;;;;;;;;5128163;27;20455;-68
2022/02/05 15:11:32;;;;;;;3.17;0.80;;;;;;;;;;5118791;27;20447;-68
2022/02/05 15:14:01;;;;;;;2.03;0.70;;;;;;;;;;5128790;27;20598;-69
2022/02/05 15:16:29;;;;;;;1.23;0.87;;;;;;;;;;5129762;27;20454;-68
2022/02/05 15:18:57;;;;;;;1.70;0.70;;;;;;;;;;5128039;27;20553;-68
2022/02/05 15:21:25;;;;;;;2.93;1.10;;;;;;;;;;5136220;27;20456;-68
2022/02/05 15:23:53;;;;;;;5.17;2.23;;;;;;;;;;5130783;27;20457;-67
2022/02/05 15:26:22;;;;;;;1.50;1.40;;;;;;;;;;5128836;27;20942;-67
2022/02/05 15:28:50;;;;;;;1.37;0.97;;;;;;;;;;5125580;27;20451;-66
2022/02/05 15:31:18;;;;;;;2.70;1.00;;;;;;;;;;5129183;27;21011;-66
2022/02/05 15:33:48;;;;;;;2.00;1.03;;;;;;;;;;5128232;27;20516;-70
2022/02/05 15:36:22;;;;;;;4.00;0.80;;;;;;;;;;5128877;27;20464;-69
2022/02/05 15:39:04;;;;;;;2.00;0.83;;;;;;;;;;5117108;27;20447;-69
2022/02/05 15:44:17;;;;;;;2.37;0.87;;;;;;;;;;5129023;27;21309;-69
2022/02/05 15:46:45;;;;;;;2.10;0.70;;;;;;;;;;5127867;27;20451;-69
2022/02/05 15:49:13;;;;;;;1.17;0.90;;;;;;;;;;5128622;27;20474;-68
2022/02/05 15:51:40;;;;;;;4.30;0.90;;;;;;;;;;5127987;28;20554;-70
2022/02/05 15:54:10;;;;;;;2.00;1.20;;;;;;;;;;5127695;28;20597;-70
2022/02/05 15:56:43;;;;;;;2.30;1.40;;;;;;;;;;5119465;28;20511;-70
2022/02/05 15:59:14;;;;;;;4.10;1.10;;;;;;;;;;5128639;28;20454;-69
2022/02/05 16:01:41;;;;;;;5.00;1.53;;;;;;;;;;5117164;28;20975;-69
2022/02/05 16:04:08;;;;;;;5.43;1.23;;;;;;;;;;5128804;28;20530;-69
2022/02/05 16:06:36;;;;;;;6.67;2.80;;;;;;;;;;5128972;28;20450;-69
2022/02/05 16:09:04;;;;;;;4.63;1.97;;;;;;;;;;5128021;28;20442;-69
2022/02/05 16:11:31;;;;;;;5.13;2.50;;;;;;;;;;5124993;28;20454;-69
2022/02/05 16:14:00;;;;;;;4.47;2.57;;;;;;;;;;5128389;28;20905;-69
2022/02/05 16:16:27;;;;;;;3.37;2.20;;;;;;;;;;5129509;28;20526;-68
2022/02/05 16:18:55;;;;;;;2.77;1.23;;;;;;;;;;5127698;28;20817;-70
2022/02/05 16:21:23;;;;;;;3.90;2.60;;;;;;;;;;5128624;28;20894;-68
2022/02/05 16:23:51;;;;;;;5.17;2.20;;;;;;;;;;5126538;27;20490;-68
2022/02/05 16:26:19;;;;;;;4.40;1.90;;;;;;;;;;5128228;28;20451;-68
2022/02/05 16:28:46;;;;;;;2.83;1.80;;;;;;;;;;5125606;28;20449;-68
2022/02/05 16:31:15;;;;;;;4.00;1.27;;;;;;;;;;5128076;28;20535;-69
2022/02/05 16:33:43;;;;;;;2.63;2.17;;;;;;;;;;5128485;28;20470;-67
2022/02/05 16:36:12;;;;;;;2.50;1.40;;;;;;;;;;5129093;28;20506;-68
2022/02/05 16:38:42;;;;;;;2.67;2.00;;;;;;;;;;5129628;27;20491;-68
2022/02/05 16:41:09;;;;;;;2.73;1.60;;;;;;;;;;5132619;27;20554;-68
2022/02/05 16:43:39;;;;;;;2.50;1.70;;;;;;;;;;5131891;27;20462;-69
2022/02/05 16:46:08;;;;;;;1.87;1.10;;;;;;;;;;5130658;27;21106;-68
2022/02/05 16:48:38;;;;;;;2.27;1.30;;;;;;;;;;5133165;27;20446;-68
2022/02/05 16:51:07;;;;;;;2.93;1.43;;;;;;;;;;5131661;27;20848;-68
2022/02/05 16:53:34;;;;;;;3.40;1.50;;;;;;;;;;5132092;27;20706;-68
2022/02/05 16:56:02;;;;;;;3.50;2.03;;;;;;;;;;5132017;27;20453;-68
2022/02/05 16:58:29;;;;;;;4.03;1.87;;;;;;;;;;5132437;27;20949;-69
2022/02/05 17:00:56;;;;;;;3.23;1.67;;;;;;;;;;5130926;27;20530;-68